KLRO/LRO METAR and TAF weather

Enter ICAO airport designator
Station Type Date Time Source
KLRO METAR 2021/09/16 11:15 UTC NOAA

KLRO 161115Z AUTO 00000KT 6SM BR CLR 23/23 A3000 RMK AO2


Station Type Date Time Source
KLRO Decoded METAR 2021/09/16 11:15 UTC NOAA

Station name not available
Sep 16, 2021 - 07:15 AM EDT / 2021.09.16 1115 UTC
Wind: Calm:0
Visibility: 6 mile(s):0
Sky conditions: clear
Weather: mist
Temperature: 73 F (23 C)
Dew Point: 73 F (23 C)
Relative Humidity: 100%
Pressure (altimeter): 30 in. Hg (1015 hPa)
ob: KLRO 161115Z AUTO 00000KT 6SM BR CLR 23/23 A3000 RMK AO2
cycle: 11

Station Type Date Time Source
KLRO TAF UTC NOAA

Error!

Example: see airport list